X  Luk Metar data     EBBR Brussels Airport
Temperatur
11°C Temperatur
8°C Duggpunkt
82% Fugtighed



Vind
16 KM/T
10 MPT
4 M/S
9 KNOB



200°
SSV
Nuværende forhold

For det meste spredte skyer For det meste spredte skyer
Tryk 1000.92 (hPa) - 29.56 (inHg)
Sigt 6.2 (mil) - 10 (km)
Lufthavn
Lufthavnskode EBBR

Lokation: Brussels Airport
Afstand: 14 (km)

Metar:
EBBR 251820Z 20009KT 9999 SCT030 11/08 Q1001 NOSIG

Tid: 10-25-2020 19:20 CET